Time;durP1;ratioP1;P1;durP2;ratioP2;P2;SDS_P1;SDS_P2;PMS_P1;PMS_P2;Temp;Humidity;BMP_temperature;BMP_pressure;BME280_temperature;BME280_humidity;BME280_pressure;Samples;Min_cycle;Max_cycle;Signal;HPM_P1;HPM_P2
2022/02/06 00:02:27;;;;;;;;;;;9.80;99.90;;;;;;5039015;28;19947;-79
2022/02/06 00:04:54;;;;;;;;;;;9.80;99.90;;;;;;5057012;28;19909;-79
2022/02/06 00:07:20;;;;;;;;;;;9.80;99.90;;;;;;5057073;28;20000;-79
2022/02/06 00:09:46;;;;;;;;;;;9.80;99.90;;;;;;5056898;28;19936;-78
2022/02/06 00:12:12;;;;;;;;;;;9.80;99.90;;;;;;5056807;28;19915;-79
2022/02/06 00:14:38;;;;;;;;;;;9.90;99.90;;;;;;5056775;28;19909;-79
2022/02/06 00:17:04;;;;;;;;;;;9.80;99.90;;;;;;5056281;28;19920;-79
2022/02/06 00:19:30;;;;;;;;;;;9.80;99.90;;;;;;5056875;28;19916;-79
2022/02/06 00:21:56;;;;;;;;;;;9.90;99.90;;;;;;5056778;28;19916;-79
2022/02/06 00:24:32;;;;;;;;;;;9.90;99.90;;;;;;5056593;28;19963;-78
2022/02/06 00:27:12;;;;;;;;;;;9.90;99.90;;;;;;5038321;28;19915;-79
2022/02/06 00:29:48;;;;;;;;;;;9.90;99.90;;;;;;5056662;28;19912;-78
2022/02/06 00:32:28;;;;;;;;;;;9.90;99.90;;;;;;5038304;28;19909;-78
2022/02/06 00:40:33;;;;;;;;;;;10.00;99.90;;;;;;5056102;28;20391;-79
2022/02/06 00:42:59;;;;;;;;;;;10.00;99.90;;;;;;5038128;28;19916;-78
2022/02/06 00:45:24;;;;;;;;;;;9.90;99.90;;;;;;5056171;28;19909;-79
2022/02/06 00:47:50;;;;;;;;;;;10.00;99.90;;;;;;5056112;28;20380;-79
2022/02/06 00:50:15;;;;;;;;;;;10.00;99.90;;;;;;5056152;28;19909;-79
2022/02/06 00:52:52;;;;;;;;;;;10.00;99.90;;;;;;5056355;28;19955;-80
2022/02/06 00:55:17;;;;;;;;;;;10.10;99.90;;;;;;5037866;28;19971;-79
2022/02/06 00:57:43;;;;;;;;;;;10.10;99.90;;;;;;5038056;28;19909;-79
2022/02/06 01:00:08;;;;;;;;;;;10.10;99.90;;;;;;5038086;28;19909;-78
2022/02/06 01:02:34;;;;;;;;;;;10.10;99.90;;;;;;5055175;28;19909;-78
2022/02/06 01:05:01;;;;;;;;;;;10.10;99.90;;;;;;5055869;28;19913;-78
2022/02/06 01:07:26;;;;;;;;;;;10.10;99.90;;;;;;5055739;28;20384;-80
2022/02/06 01:09:52;;;;;;;;;;;10.10;99.90;;;;;;5055990;28;19947;-78
2022/02/06 01:12:22;;;;;;;;;;;10.10;99.90;;;;;;5055725;28;19948;-79
2022/02/06 01:15:03;;;;;;;;;;;10.20;99.90;;;;;;5055794;28;20301;-78
2022/02/06 01:17:41;;;;;;;;;;;10.10;99.90;;;;;;5037490;28;20296;-78
2022/02/06 01:20:18;;;;;;;;;;;10.10;99.90;;;;;;5056066;28;20286;-79
2022/02/06 01:22:55;;;;;;;;;;;10.10;99.90;;;;;;5055908;28;19913;-79
2022/02/06 01:25:28;;;;;;;;;;;10.10;99.90;;;;;;5055528;28;20031;-79
2022/02/06 01:28:02;;;;;;;;;;;10.10;99.90;;;;;;5037549;28;20287;-79
2022/02/06 01:30:45;;;;;;;;;;;10.10;99.90;;;;;;5055653;28;19967;-79
2022/02/06 01:33:19;;;;;;;;;;;10.10;99.90;;;;;;5037218;28;19909;-79
2022/02/06 01:36:27;;;;;;;;;;;10.20;99.90;;;;;;5055623;28;19913;-79
2022/02/06 01:41:17;;;;;;;;;;;10.20;99.90;;;;;;5055154;28;19909;-79
2022/02/06 01:43:48;;;;;;;;;;;10.20;99.90;;;;;;5055292;28;20381;-79
2022/02/06 01:46:34;;;;;;;;;;;10.20;99.90;;;;;;5036972;28;19909;-79
2022/02/06 02:02:57;;;;;;;;;;;10.40;99.90;;;;;;5054771;28;20331;-79
2022/02/06 02:13:29;;;;;;;;;;;10.30;99.90;;;;;;5054458;28;19909;-79
2022/02/06 02:23:47;;;;;;;;;;;10.40;99.90;;;;;;5034478;28;19916;-78
2022/02/06 02:47:34;;;;;;;;;;;10.50;99.90;;;;;;5034182;28;19916;-79
2022/02/06 02:50:05;;;;;;;;;;;10.40;99.90;;;;;;5034057;28;19960;-78
2022/02/06 02:55:14;;;;;;;;;;;10.50;99.90;;;;;;5034336;28;19909;-79
2022/02/06 02:57:55;;;;;;;;;;;10.50;99.90;;;;;;5032378;28;19941;-79
2022/02/06 03:02:49;;;;;;;;;;;10.50;99.90;;;;;;5033730;28;19945;-79
2022/02/06 03:05:14;;;;;;;;;;;10.50;99.90;;;;;;5033936;28;19909;-79
2022/02/06 03:07:40;;;;;;;;;;;10.50;99.90;;;;;;5033781;28;20000;-79
2022/02/06 03:10:06;;;;;;;;;;;10.50;99.90;;;;;;5033857;28;19909;-79
2022/02/06 03:12:34;;;;;;;;;;;10.50;99.90;;;;;;5032353;28;19910;-79
2022/02/06 03:15:10;;;;;;;;;;;10.60;99.90;;;;;;5034107;28;19913;-80
2022/02/06 03:17:44;;;;;;;;;;;10.70;99.90;;;;;;5035377;28;20011;-79
2022/02/06 03:20:17;;;;;;;;;;;10.50;99.90;;;;;;5035235;28;19912;-78
2022/02/06 03:22:52;;;;;;;;;;;10.60;99.90;;;;;;5053681;28;19908;-79
2022/02/06 03:25:20;;;;;;;;;;;10.50;99.90;;;;;;5034833;28;20341;-80
2022/02/06 03:27:46;;;;;;;;;;;10.50;99.90;;;;;;5035424;28;20372;-79
2022/02/06 03:30:12;;;;;;;;;;;10.60;99.90;;;;;;5053297;28;20381;-79
2022/02/06 03:32:37;;;;;;;;;;;10.50;99.90;;;;;;5053676;28;19995;-79
2022/02/06 03:35:03;;;;;;;;;;;10.50;99.90;;;;;;5035303;28;19909;-80
2022/02/06 03:37:28;;;;;;;;;;;10.50;99.90;;;;;;5053362;28;19908;-80
2022/02/06 03:39:56;;;;;;;;;;;10.50;99.90;;;;;;5053231;28;19909;-79
2022/02/06 03:42:24;;;;;;;;;;;10.50;99.90;;;;;;5053281;28;19909;-79
2022/02/06 03:44:53;;;;;;;;;;;10.60;99.90;;;;;;5053206;28;19912;-79
2022/02/06 03:47:21;;;;;;;;;;;10.50;99.90;;;;;;5053392;28;19995;-78
2022/02/06 03:52:13;;;;;;;;;;;10.50;99.90;;;;;;5053061;28;20346;-78
2022/02/06 03:54:39;;;;;;;;;;;10.50;99.90;;;;;;5035211;28;19948;-78
2022/02/06 03:57:04;;;;;;;;;;;10.50;99.90;;;;;;5052991;28;19912;-79
2022/02/06 03:59:31;;;;;;;;;;;10.50;99.90;;;;;;5035158;28;19992;-79
2022/02/06 04:01:57;;;;;;;;;;;10.50;99.90;;;;;;5053011;28;19909;-79
2022/02/06 04:04:23;;;;;;;;;;;10.50;99.90;;;;;;5053218;28;19909;-78
2022/02/06 04:06:49;;;;;;;;;;;10.50;99.90;;;;;;5053174;28;19915;-79
2022/02/06 04:09:19;;;;;;;;;;;10.50;99.90;;;;;;5053113;28;19931;-79
2022/02/06 04:11:49;;;;;;;;;;;10.50;99.90;;;;;;5053228;28;19908;-79
2022/02/06 04:16:52;;;;;;;;;;;10.50;99.90;;;;;;5052620;28;20330;-78
2022/02/06 04:19:36;;;;;;;;;;;10.50;99.90;;;;;;5034795;28;20395;-79
2022/02/06 04:22:01;;;;;;;;;;;10.50;99.90;;;;;;5053062;28;19940;-78
2022/02/06 04:24:27;;;;;;;;;;;10.50;99.90;;;;;;5052839;28;19948;-78
2022/02/06 04:26:53;;;;;;;;;;;10.50;99.90;;;;;;5052966;28;19916;-79
2022/02/06 04:29:19;;;;;;;;;;;10.50;99.90;;;;;;5052953;28;19955;-79
2022/02/06 04:31:48;;;;;;;;;;;10.50;99.90;;;;;;5052788;28;20372;-79
2022/02/06 04:34:20;;;;;;;;;;;10.50;99.90;;;;;;5053354;28;19964;-78
2022/02/06 04:39:46;;;;;;;;;;;10.50;99.90;;;;;;5056565;28;19909;-79
2022/02/06 04:42:20;;;;;;;;;;;10.60;99.90;;;;;;5056096;28;19916;-78
2022/02/06 05:15:08;;;;;;;;;;;10.70;99.90;;;;;;5055412;28;20042;-78
2022/02/06 05:18:10;;;;;;;;;;;10.70;99.90;;;;;;5017687;28;19929;-78
2022/02/06 05:23:33;;;;;;;;;;;10.50;99.90;;;;;;5035886;28;19909;-80
2022/02/06 05:33:58;;;;;;;;;;;10.10;99.90;;;;;;4993889;28;19909;-79
2022/02/06 05:36:24;;;;;;;;;;;10.20;99.90;;;;;;5017526;28;19920;-78
2022/02/06 05:38:49;;;;;;;;;;;10.10;99.90;;;;;;5035284;28;19996;-78
2022/02/06 05:41:15;;;;;;;;;;;10.10;99.90;;;;;;5035578;28;19945;-79
2022/02/06 05:43:41;;;;;;;;;;;10.10;99.90;;;;;;5017457;28;19910;-79
2022/02/06 05:46:07;;;;;;;;;;;10.10;99.90;;;;;;5035401;28;19960;-79
2022/02/06 05:48:32;;;;;;;;;;;10.10;99.90;;;;;;5034727;28;19914;-79
2022/02/06 05:50:58;;;;;;;;;;;10.10;99.90;;;;;;5035279;28;20354;-78
2022/02/06 05:53:24;;;;;;;;;;;10.10;99.90;;;;;;5017206;28;19971;-79
2022/02/06 05:55:49;;;;;;;;;;;10.00;99.90;;;;;;5035170;28;20433;-78
2022/02/06 05:58:15;;;;;;;;;;;10.00;99.90;;;;;;5034962;28;19947;-80
2022/02/06 06:00:40;;;;;;;;;;;10.00;99.90;;;;;;5035145;28;19909;-79
2022/02/06 06:03:08;;;;;;;;;;;10.10;99.90;;;;;;5034863;28;19916;-79
2022/02/06 06:05:34;;;;;;;;;;;10.10;99.90;;;;;;5034942;28;19909;-78
2022/02/06 06:07:59;;;;;;;;;;;10.10;99.90;;;;;;5017003;28;19913;-79
2022/02/06 06:10:25;;;;;;;;;;;10.10;99.90;;;;;;5034740;28;19963;-79
2022/02/06 06:12:50;;;;;;;;;;;10.10;99.90;;;;;;5034902;28;19916;-79
2022/02/06 06:15:16;;;;;;;;;;;10.10;99.90;;;;;;5037067;28;20380;-78
2022/02/06 06:17:42;;;;;;;;;;;10.20;99.90;;;;;;5054716;28;19912;-79
2022/02/06 06:20:12;;;;;;;;;;;10.20;99.90;;;;;;5054558;28;20289;-79
2022/02/06 06:22:39;;;;;;;;;;;10.30;99.90;;;;;;5054905;28;19909;-79
2022/02/06 06:25:06;;;;;;;;;;;10.30;99.90;;;;;;5054686;28;19967;-78
2022/02/06 06:27:32;;;;;;;;;;;10.40;99.90;;;;;;5054351;28;19939;-78
2022/02/06 06:29:57;;;;;;;;;;;10.40;99.90;;;;;;5054300;28;19909;-78
2022/02/06 06:32:23;;;;;;;;;;;10.40;99.90;;;;;;5054233;28;20034;-78
2022/02/06 06:34:49;;;;;;;;;;;10.50;99.90;;;;;;5054307;28;19909;-79
2022/02/06 06:37:15;;;;;;;;;;;10.50;99.90;;;;;;5036231;28;19913;-79
2022/02/06 06:39:43;;;;;;;;;;;10.50;99.90;;;;;;5036162;28;19916;-78
2022/02/06 06:42:09;;;;;;;;;;;10.50;99.90;;;;;;5054109;28;19909;-78
2022/02/06 06:44:36;;;;;;;;;;;10.50;99.90;;;;;;5054011;28;20402;-79
2022/02/06 06:47:02;;;;;;;;;;;10.60;99.90;;;;;;5036083;28;19958;-78
2022/02/06 06:49:27;;;;;;;;;;;10.60;99.90;;;;;;5053931;28;20378;-78
2022/02/06 06:51:56;;;;;;;;;;;10.60;99.90;;;;;;5053849;28;19909;-78
2022/02/06 06:54:23;;;;;;;;;;;10.60;99.90;;;;;;5053753;28;19916;-78
2022/02/06 06:56:58;;;;;;;;;;;10.70;99.90;;;;;;5035872;28;20012;-79
2022/02/06 07:02:51;;;;;;;;;;;10.60;99.90;;;;;;5053407;28;20305;-79
2022/02/06 07:04:57;;;;;;;;;;;10.60;99.90;;;;;;5042929;28;19951;-79
2022/02/06 07:07:22;;;;;;;;;;;10.60;99.90;;;;;;5053682;28;19965;-78
2022/02/06 07:09:48;;;;;;;;;;;10.70;99.90;;;;;;5053800;28;19909;-78
2022/02/06 07:12:14;;;;;;;;;;;10.60;99.90;;;;;;5053567;28;19940;-79
2022/02/06 07:14:43;;;;;;;;;;;10.60;99.90;;;;;;5053573;28;19913;-79
2022/02/06 07:17:09;;;;;;;;;;;10.60;99.90;;;;;;5053260;28;19928;-79
2022/02/06 07:19:35;;;;;;;;;;;10.60;99.90;;;;;;5053946;28;19909;-79
2022/02/06 07:22:00;;;;;;;;;;;10.70;99.90;;;;;;5053427;28;19916;-79
2022/02/06 07:24:27;;;;;;;;;;;10.60;99.90;;;;;;5053410;28;20007;-79
2022/02/06 07:26:57;;;;;;;;;;;10.60;99.90;;;;;;5053357;28;19908;-78
2022/02/06 07:29:24;;;;;;;;;;;10.60;99.90;;;;;;5053362;28;20442;-78
2022/02/06 07:31:51;;;;;;;;;;;10.60;99.90;;;;;;5053323;28;19919;-79
2022/02/06 07:34:16;;;;;;;;;;;10.60;99.90;;;;;;5053284;28;20336;-79
2022/02/06 07:36:42;;;;;;;;;;;10.60;99.90;;;;;;5053207;28;19952;-78
2022/02/06 07:39:08;;;;;;;;;;;10.60;99.90;;;;;;5053444;28;19908;-79
2022/02/06 07:41:34;;;;;;;;;;;10.70;99.90;;;;;;5053248;28;19909;-78
2022/02/06 07:43:59;;;;;;;;;;;10.60;99.90;;;;;;5053235;28;19963;-78
2022/02/06 07:46:30;;;;;;;;;;;10.70;99.90;;;;;;5053543;28;19959;-79
2022/02/06 07:49:01;;;;;;;;;;;10.70;99.90;;;;;;5034984;28;20446;-79
2022/02/06 07:51:27;;;;;;;;;;;10.80;99.90;;;;;;5035031;28;20356;-79
2022/02/06 07:53:53;;;;;;;;;;;10.70;99.90;;;;;;5053061;28;20007;-79
2022/02/06 07:56:18;;;;;;;;;;;10.70;99.90;;;;;;5053042;28;19920;-78
2022/02/06 07:58:44;;;;;;;;;;;10.70;99.90;;;;;;5053110;28;19916;-79
2022/02/06 08:01:09;;;;;;;;;;;10.80;99.90;;;;;;5053080;28;19927;-78
2022/02/06 08:03:35;;;;;;;;;;;10.80;99.90;;;;;;5053321;28;19944;-78
2022/02/06 08:06:00;;;;;;;;;;;10.80;99.90;;;;;;5053021;28;19909;-78
2022/02/06 08:08:26;;;;;;;;;;;10.80;99.90;;;;;;5052983;28;19995;-78
2022/02/06 08:10:58;;;;;;;;;;;10.70;99.90;;;;;;5053278;28;19909;-78
2022/02/06 08:13:29;;;;;;;;;;;10.80;99.90;;;;;;5038640;28;19909;-78
2022/02/06 08:15:54;;;;;;;;;;;10.80;99.90;;;;;;5056953;28;20309;-79
2022/02/06 08:18:20;;;;;;;;;;;10.80;99.90;;;;;;5056808;28;19909;-80
2022/02/06 08:20:46;;;;;;;;;;;10.80;99.90;;;;;;5056901;28;19915;-78
2022/02/06 08:23:13;;;;;;;;;;;10.90;99.90;;;;;;5056753;28;20451;-78
2022/02/06 08:25:39;;;;;;;;;;;10.80;99.90;;;;;;5056628;28;19944;-79
2022/02/06 08:28:05;;;;;;;;;;;10.90;99.90;;;;;;5056965;28;20336;-79
2022/02/06 08:30:30;;;;;;;;;;;10.90;99.90;;;;;;5056552;28;19909;-79
2022/02/06 08:32:56;;;;;;;;;;;10.90;99.90;;;;;;5056475;28;20369;-79
2022/02/06 08:35:23;;;;;;;;;;;10.90;99.90;;;;;;5056425;28;20320;-79
2022/02/06 08:37:50;;;;;;;;;;;10.90;99.90;;;;;;5038552;28;19951;-79
2022/02/06 08:40:16;;;;;;;;;;;10.90;99.90;;;;;;5056474;28;19909;-79
2022/02/06 08:42:43;;;;;;;;;;;10.90;99.90;;;;;;5056321;28;19912;-78
2022/02/06 08:45:12;;;;;;;;;;;10.80;99.90;;;;;;5056268;28;19935;-78
2022/02/06 08:47:38;;;;;;;;;;;10.90;99.90;;;;;;5056650;28;19913;-79
2022/02/06 08:50:04;;;;;;;;;;;10.90;99.90;;;;;;5056194;28;19991;-80
2022/02/06 08:52:30;;;;;;;;;;;10.90;99.90;;;;;;5056099;28;20040;-78
2022/02/06 08:54:56;;;;;;;;;;;10.90;99.90;;;;;;5056213;28;20003;-78
2022/02/06 08:57:26;;;;;;;;;;;10.90;99.90;;;;;;5055976;28;19924;-78
2022/02/06 08:59:54;;;;;;;;;;;11.00;99.90;;;;;;5038097;28;20298;-78
2022/02/06 09:02:20;;;;;;;;;;;11.00;99.90;;;;;;5056003;28;19999;-79
2022/02/06 09:04:46;;;;;;;;;;;11.00;99.90;;;;;;5055882;28;20003;-79
2022/02/06 09:07:12;;;;;;;;;;;11.00;99.90;;;;;;5055857;28;19909;-78
2022/02/06 09:09:43;;;;;;;;;;;11.10;99.90;;;;;;5056069;28;19909;-79
2022/02/06 09:12:09;;;;;;;;;;;11.10;99.90;;;;;;5055953;28;20293;-78
2022/02/06 09:14:34;;;;;;;;;;;11.10;99.90;;;;;;5055708;28;19909;-78
2022/02/06 09:17:00;;;;;;;;;;;11.20;99.90;;;;;;5055401;28;19932;-79
2022/02/06 09:19:25;;;;;;;;;;;11.20;99.90;;;;;;5055627;28;19909;-79
2022/02/06 09:21:51;;;;;;;;;;;11.20;99.90;;;;;;5055589;28;20439;-79
2022/02/06 09:24:20;;;;;;;;;;;11.20;99.90;;;;;;5054905;28;19991;-78
2022/02/06 09:26:46;;;;;;;;;;;11.20;99.90;;;;;;5037641;28;19909;-78
2022/02/06 09:29:11;;;;;;;;;;;11.20;99.90;;;;;;5055528;28;20323;-78
2022/02/06 09:31:37;;;;;;;;;;;11.20;99.90;;;;;;5055409;28;19908;-78
2022/02/06 09:36:29;;;;;;;;;;;11.30;99.90;;;;;;5055522;28;19913;-79
2022/02/06 09:38:55;;;;;;;;;;;11.30;99.90;;;;;;5055349;28;19916;-78
2022/02/06 09:41:20;;;;;;;;;;;11.40;99.90;;;;;;5055202;28;19908;-79
2022/02/06 09:43:46;;;;;;;;;;;11.50;99.90;;;;;;5055192;28;20315;-78
2022/02/06 09:46:13;;;;;;;;;;;11.40;99.90;;;;;;5037245;28;19944;-79
2022/02/06 09:48:39;;;;;;;;;;;11.50;99.90;;;;;;5055135;28;20382;-79
2022/02/06 09:51:05;;;;;;;;;;;11.50;99.90;;;;;;5055210;28;19966;-78
2022/02/06 09:53:32;;;;;;;;;;;11.40;99.90;;;;;;5054989;28;19909;-79
2022/02/06 09:56:01;;;;;;;;;;;11.40;99.90;;;;;;5055252;28;19913;-78
2022/02/06 09:58:55;;;;;;;;;;;11.40;99.90;;;;;;5037052;28;20348;-78
2022/02/06 10:01:14;;;;;;;;;;;11.40;99.90;;;;;;5054648;28;20313;-78
2022/02/06 10:03:44;;;;;;;;;;;11.40;99.90;;;;;;5054832;28;19928;-78
2022/02/06 10:06:11;;;;;;;;;;;11.30;99.90;;;;;;5055186;28;19909;-79
2022/02/06 10:08:39;;;;;;;;;;;11.40;99.90;;;;;;5054774;28;19959;-79
2022/02/06 10:11:10;;;;;;;;;;;11.20;99.90;;;;;;5054660;28;19971;-78
2022/02/06 10:13:39;;;;;;;;;;;11.10;99.90;;;;;;5054645;28;19970;-79
2022/02/06 10:16:09;;;;;;;;;;;11.10;99.90;;;;;;5054307;28;20361;-79
2022/02/06 10:18:35;;;;;;;;;;;11.00;99.90;;;;;;5036665;28;20258;-79
2022/02/06 10:21:00;;;;;;;;;;;11.00;99.90;;;;;;5054569;28;19920;-79
2022/02/06 10:26:02;;;;;;;;;;;11.00;99.90;;;;;;5054391;28;20338;-79
2022/02/06 10:28:46;;;;;;;;;;;11.00;99.90;;;;;;5054558;28;19909;-78
2022/02/06 10:31:13;;;;;;;;;;;11.10;99.90;;;;;;5054310;28;19909;-80
2022/02/06 10:33:44;;;;;;;;;;;11.10;99.90;;;;;;5054596;28;20274;-78
2022/02/06 10:36:10;;;;;;;;;;;11.00;99.90;;;;;;5053146;28;19917;-79
2022/02/06 10:38:36;;;;;;;;;;;11.10;99.90;;;;;;5054472;28;19938;-78
2022/02/06 10:41:01;;;;;;;;;;;11.10;99.90;;;;;;5036234;28;19909;-79
2022/02/06 10:43:27;;;;;;;;;;;11.30;99.90;;;;;;5054262;28;20445;-79
2022/02/06 10:46:04;;;;;;;;;;;11.40;99.90;;;;;;5054009;28;20368;-79
2022/02/06 10:48:29;;;;;;;;;;;11.50;99.90;;;;;;5054211;28;19909;-79
2022/02/06 10:50:55;;;;;;;;;;;11.50;99.90;;;;;;5053936;28;19912;-79
2022/02/06 10:53:20;;;;;;;;;;;11.50;99.90;;;;;;5054141;28;20388;-79
2022/02/06 10:55:50;;;;;;;;;;;11.50;99.90;;;;;;5053924;28;19952;-79
2022/02/06 10:58:17;;;;;;;;;;;11.60;99.90;;;;;;5054063;28;19987;-78
2022/02/06 11:00:42;;;;;;;;;;;11.70;99.90;;;;;;5053939;28;19916;-80
2022/02/06 11:03:25;;;;;;;;;;;12.00;99.90;;;;;;5053684;28;19909;-79
2022/02/06 11:05:53;;;;;;;;;;;12.00;99.90;;;;;;5053767;28;19909;-78
2022/02/06 11:08:28;;;;;;;;;;;11.90;99.90;;;;;;5035726;28;20023;-79
2022/02/06 11:10:55;;;;;;;;;;;11.90;99.90;;;;;;5035505;28;20011;-79
2022/02/06 11:13:21;;;;;;;;;;;12.10;99.90;;;;;;5053552;28;19913;-79
2022/02/06 11:15:47;;;;;;;;;;;12.20;99.90;;;;;;5053384;28;20396;-79
2022/02/06 11:18:18;;;;;;;;;;;12.40;99.90;;;;;;5053491;28;19916;-80
2022/02/06 11:20:52;;;;;;;;;;;12.40;99.90;;;;;;5053582;28;19948;-79
2022/02/06 11:23:18;;;;;;;;;;;12.20;99.90;;;;;;5053637;28;19909;-79
2022/02/06 11:25:44;;;;;;;;;;;12.20;99.90;;;;;;5053556;28;19908;-79
2022/02/06 11:28:11;;;;;;;;;;;12.30;99.90;;;;;;5053420;28;20091;-79
2022/02/06 11:30:40;;;;;;;;;;;12.30;99.90;;;;;;5053255;28;20389;-79
2022/02/06 11:33:06;;;;;;;;;;;12.10;99.90;;;;;;5035461;28;19915;-78
2022/02/06 11:35:34;;;;;;;;;;;11.80;99.90;;;;;;5053247;28;20011;-79
2022/02/06 11:43:54;;;;;;;;;;;11.90;99.90;;;;;;5053476;28;20035;-79
2022/02/06 11:46:34;;;;;;;;;;;11.90;99.90;;;;;;5054460;28;19963;-79
2022/02/06 11:49:07;;;;;;;;;;;12.00;99.90;;;;;;5057303;28;19916;-78
2022/02/06 11:51:33;;;;;;;;;;;11.90;99.90;;;;;;5057365;28;19916;-79
2022/02/06 11:54:19;;;;;;;;;;;12.00;99.90;;;;;;5057494;28;19908;-79
2022/02/06 11:56:44;;;;;;;;;;;12.30;99.90;;;;;;5057030;28;19920;-79
2022/02/06 11:59:11;;;;;;;;;;;12.60;99.90;;;;;;5039184;28;19913;-79
2022/02/06 12:01:36;;;;;;;;;;;13.10;99.90;;;;;;5039166;28;19960;-79
2022/02/06 12:04:02;;;;;;;;;;;13.70;99.90;;;;;;5057081;28;19920;-79
2022/02/06 12:06:37;;;;;;;;;;;13.90;99.90;;;;;;5057162;28;20324;-78
2022/02/06 12:09:02;;;;;;;;;;;15.00;99.90;;;;;;5057007;28;20006;-78
2022/02/06 12:11:28;;;;;;;;;;;14.40;99.90;;;;;;5039055;28;19909;-79
2022/02/06 12:14:08;;;;;;;;;;;13.90;99.90;;;;;;5056875;28;20387;-79
2022/02/06 12:16:42;;;;;;;;;;;13.90;99.90;;;;;;5056621;28;19921;-79
2022/02/06 12:19:26;;;;;;;;;;;14.20;99.90;;;;;;5057021;28;19955;-79
2022/02/06 12:21:52;;;;;;;;;;;16.00;99.90;;;;;;5038908;28;20262;-79
2022/02/06 12:24:42;;;;;;;;;;;15.90;99.90;;;;;;5056692;28;19971;-79
2022/02/06 12:27:24;;;;;;;;;;;16.70;99.90;;;;;;5056748;28;20003;-78
2022/02/06 12:29:56;;;;;;;;;;;15.90;99.90;;;;;;5056794;28;20015;-79
2022/02/06 12:32:29;;;;;;;;;;;15.40;99.90;;;;;;5056861;28;20007;-79
2022/02/06 12:37:39;;;;;;;;;;;15.50;99.90;;;;;;5056280;28;19920;-80
2022/02/06 12:40:12;;;;;;;;;;;15.00;99.90;;;;;;5056424;28;19908;-79
2022/02/06 12:42:40;;;;;;;;;;;14.20;99.90;;;;;;5056448;28;20308;-79
2022/02/06 12:45:13;;;;;;;;;;;14.10;99.90;;;;;;5056425;28;19948;-78
2022/02/06 12:47:46;;;;;;;;;;;14.10;99.90;;;;;;5056362;28;19908;-79
2022/02/06 12:50:12;;;;;;;;;;;14.10;99.90;;;;;;5056218;28;19974;-79
2022/02/06 12:52:38;;;;;;;;;;;14.10;99.90;;;;;;5056291;28;19944;-80
2022/02/06 12:55:04;;;;;;;;;;;15.20;99.90;;;;;;5056158;28;19963;-79
2022/02/06 12:57:29;;;;;;;;;;;15.80;99.90;;;;;;5055173;28;19913;-79
2022/02/06 12:59:55;;;;;;;;;;;15.50;99.90;;;;;;5055830;28;20254;-79
2022/02/06 13:02:21;;;;;;;;;;;15.40;99.90;;;;;;5055985;28;20331;-79
2022/02/06 13:05:01;;;;;;;;;;;15.10;99.90;;;;;;5055933;28;19913;-79
2022/02/06 13:07:30;;;;;;;;;;;15.80;99.90;;;;;;5055983;28;19955;-79
2022/02/06 13:10:03;;;;;;;;;;;16.60;99.90;;;;;;5056307;28;20369;-79
2022/02/06 13:12:39;;;;;;;;;;;15.60;99.90;;;;;;5056037;28;19917;-78
2022/02/06 13:20:17;;;;;;;;;;;14.70;99.90;;;;;;5055947;28;19970;-80
2022/02/06 13:23:05;;;;;;;;;;;14.30;99.90;;;;;;5037496;28;20461;-79
2022/02/06 13:38:59;;;;;;;;;;;14.30;99.90;;;;;;5055117;28;19916;-80
2022/02/06 13:41:29;;;;;;;;;;;14.50;99.90;;;;;;5037408;28;19995;-81
2022/02/06 13:43:56;;;;;;;;;;;14.50;99.90;;;;;;5037364;28;19909;-80
2022/02/06 13:46:29;;;;;;;;;;;14.80;99.90;;;;;;5055561;28;19908;-81
2022/02/06 13:48:56;;;;;;;;;;;14.80;99.90;;;;;;5055160;28;19952;-79
2022/02/06 13:51:36;;;;;;;;;;;14.60;99.90;;;;;;5055161;28;20368;-79
2022/02/06 13:54:04;;;;;;;;;;;14.60;99.90;;;;;;5055008;28;19912;-79
2022/02/06 13:56:31;;;;;;;;;;;14.30;99.90;;;;;;5055381;28;19912;-80
2022/02/06 13:59:00;;;;;;;;;;;14.10;99.90;;;;;;5054966;28;20011;-79
2022/02/06 14:01:47;;;;;;;;;;;13.80;99.90;;;;;;5054915;28;19908;-79
2022/02/06 14:04:18;;;;;;;;;;;13.60;99.90;;;;;;5054830;28;20365;-79
2022/02/06 14:06:51;;;;;;;;;;;13.30;99.90;;;;;;5055114;28;19995;-79
2022/02/06 14:09:27;;;;;;;;;;;13.10;99.90;;;;;;5054616;28;19940;-79
2022/02/06 14:11:57;;;;;;;;;;;13.00;99.90;;;;;;5055161;28;20395;-80
2022/02/06 14:14:23;;;;;;;;;;;13.20;99.90;;;;;;5054796;28;19916;-80
2022/02/06 14:16:50;;;;;;;;;;;13.00;99.90;;;;;;5033140;28;19952;-79
2022/02/06 14:19:34;;;;;;;;;;;12.90;99.90;;;;;;5034642;28;19909;-79
2022/02/06 14:22:00;;;;;;;;;;;12.90;99.90;;;;;;5034780;28;19909;-80
2022/02/06 14:24:26;;;;;;;;;;;12.80;99.90;;;;;;5034692;28;20255;-80
2022/02/06 14:27:00;;;;;;;;;;;12.80;99.90;;;;;;5034452;28;20365;-79
2022/02/06 14:29:26;;;;;;;;;;;13.00;99.90;;;;;;5034471;28;20326;-79
2022/02/06 14:31:51;;;;;;;;;;;13.10;99.90;;;;;;5034592;28;19952;-81
2022/02/06 14:34:18;;;;;;;;;;;13.30;99.90;;;;;;5033070;28;19909;-79
2022/02/06 14:37:03;;;;;;;;;;;13.60;99.90;;;;;;5034506;28;19913;-79
2022/02/06 14:39:34;;;;;;;;;;;14.10;99.90;;;;;;5034300;28;20432;-79
2022/02/06 14:42:09;;;;;;;;;;;13.80;99.90;;;;;;5032652;28;19909;-79
2022/02/06 14:44:34;;;;;;;;;;;13.80;99.90;;;;;;5034187;28;19917;-79
2022/02/06 14:47:00;;;;;;;;;;;13.60;99.90;;;;;;5034378;28;19913;-79
2022/02/06 14:49:28;;;;;;;;;;;13.60;99.90;;;;;;5032810;28;19951;-80
2022/02/06 14:51:54;;;;;;;;;;;13.50;99.90;;;;;;5034038;28;19971;-79
2022/02/06 14:54:27;;;;;;;;;;;13.90;99.90;;;;;;5033962;28;20393;-80
2022/02/06 14:56:53;;;;;;;;;;;14.20;99.90;;;;;;5032355;28;20004;-80
2022/02/06 14:59:18;;;;;;;;;;;14.10;99.90;;;;;;5033909;28;19941;-79
2022/02/06 15:01:44;;;;;;;;;;;14.20;99.90;;;;;;5033913;28;19948;-80
2022/02/06 15:04:10;;;;;;;;;;;13.70;99.90;;;;;;5033868;28;19924;-79
2022/02/06 15:06:36;;;;;;;;;;;13.40;99.90;;;;;;5033759;28;20271;-80
2022/02/06 15:09:02;;;;;;;;;;;13.50;99.90;;;;;;5034073;28;19915;-79
2022/02/06 15:11:27;;;;;;;;;;;13.40;99.90;;;;;;5033896;28;19979;-80
2022/02/06 15:13:53;;;;;;;;;;;13.30;99.90;;;;;;5033846;28;19909;-80
2022/02/06 15:16:23;;;;;;;;;;;13.20;99.90;;;;;;5044115;28;19944;-79
2022/02/06 15:18:59;;;;;;;;;;;13.30;99.90;;;;;;5053816;28;19931;-79
2022/02/06 15:21:24;;;;;;;;;;;13.30;99.90;;;;;;5034732;28;19916;-79
2022/02/06 15:23:50;;;;;;;;;;;13.20;99.90;;;;;;5053472;28;19913;-79
2022/02/06 15:26:16;;;;;;;;;;;13.10;99.90;;;;;;5053482;28;19916;-80
2022/02/06 15:28:41;;;;;;;;;;;13.20;99.90;;;;;;5053394;28;19952;-80
2022/02/06 15:31:07;;;;;;;;;;;13.10;99.90;;;;;;5053393;28;20368;-79
2022/02/06 15:33:33;;;;;;;;;;;13.00;99.90;;;;;;5053539;28;20365;-80
2022/02/06 15:35:59;;;;;;;;;;;13.00;99.90;;;;;;5053603;28;19963;-80
2022/02/06 15:38:28;;;;;;;;;;;13.00;99.90;;;;;;5053370;28;19940;-80
2022/02/06 15:40:58;;;;;;;;;;;12.90;99.90;;;;;;5053439;28;19924;-79
2022/02/06 15:43:23;;;;;;;;;;;12.80;99.90;;;;;;5053277;28;20373;-80
2022/02/06 15:45:49;;;;;;;;;;;12.80;99.90;;;;;;5053457;28;19931;-79
2022/02/06 15:48:15;;;;;;;;;;;12.80;99.90;;;;;;5053245;28;20456;-79
2022/02/06 15:50:40;;;;;;;;;;;12.90;99.90;;;;;;5053176;28;19919;-79
2022/02/06 15:53:06;;;;;;;;;;;12.90;99.90;;;;;;5053479;28;20357;-80
2022/02/06 15:55:32;;;;;;;;;;;12.80;99.90;;;;;;5053294;28;20280;-81
2022/02/06 15:57:57;;;;;;;;;;;12.80;99.90;;;;;;5053281;28;19909;-80
2022/02/06 16:00:23;;;;;;;;;;;12.70;99.90;;;;;;5053115;28;20327;-79
2022/02/06 16:02:49;;;;;;;;;;;12.80;99.90;;;;;;5053173;28;19991;-79
2022/02/06 16:05:14;;;;;;;;;;;12.80;99.90;;;;;;5053096;28;19956;-80
2022/02/06 16:07:42;;;;;;;;;;;12.80;99.90;;;;;;5053130;28;19912;-80
2022/02/06 16:10:09;;;;;;;;;;;12.70;99.90;;;;;;5053052;28;20369;-80
2022/02/06 16:12:35;;;;;;;;;;;12.70;99.90;;;;;;5053014;28;20254;-79
2022/02/06 16:15:01;;;;;;;;;;;12.70;99.90;;;;;;5053122;28;19997;-80
2022/02/06 16:17:27;;;;;;;;;;;12.70;99.90;;;;;;5052917;28;19919;-79
2022/02/06 16:19:53;;;;;;;;;;;12.80;99.90;;;;;;5053012;28;19951;-79
2022/02/06 16:22:18;;;;;;;;;;;12.70;99.90;;;;;;5035064;28;19952;-79
2022/02/06 16:24:44;;;;;;;;;;;12.80;99.90;;;;;;5053057;28;19909;-80
2022/02/06 16:27:11;;;;;;;;;;;12.60;99.90;;;;;;5052873;28;19936;-79
2022/02/06 16:29:38;;;;;;;;;;;12.60;99.90;;;;;;5053056;28;19916;-79
2022/02/06 16:32:04;;;;;;;;;;;12.50;99.90;;;;;;5053445;28;19909;-80
2022/02/06 16:34:30;;;;;;;;;;;12.40;99.90;;;;;;5056557;28;20007;-79
2022/02/06 16:36:56;;;;;;;;;;;12.40;99.90;;;;;;5038567;28;20003;-80
2022/02/06 16:39:25;;;;;;;;;;;12.40;99.90;;;;;;5056497;28;19909;-79
2022/02/06 16:41:50;;;;;;;;;;;12.50;99.90;;;;;;5038516;28;19913;-80
2022/02/06 16:44:16;;;;;;;;;;;12.20;99.90;;;;;;5056437;28;19909;-79
2022/02/06 16:46:42;;;;;;;;;;;12.30;99.90;;;;;;5056287;28;19956;-79
2022/02/06 16:49:07;;;;;;;;;;;12.20;99.90;;;;;;5056246;28;19944;-79
2022/02/06 16:51:35;;;;;;;;;;;12.20;99.90;;;;;;5056361;28;19916;-80
2022/02/06 16:54:01;;;;;;;;;;;12.20;99.90;;;;;;5056134;28;20007;-79
2022/02/06 16:56:26;;;;;;;;;;;12.10;99.90;;;;;;5056092;28;19996;-80